Time;durP1;ratioP1;P1;durP2;ratioP2;P2;SDS_P1;SDS_P2;PMS_P1;PMS_P2;Temp;Humidity;BMP_temperature;BMP_pressure;BME280_temperature;BME280_humidity;BME280_pressure;Samples;Min_cycle;Max_cycle;Signal;HPM_P1;HPM_P2
2023/10/28 00:00:37;;;;;;;7.57;5.20;;;;;;;10.41;91.92;96558.31;5116367;28;20031;-71
2023/10/28 00:03:03;;;;;;;8.35;4.90;;;;;;;10.43;91.81;96553.50;5076224;28;20042;-71
2023/10/28 00:05:29;;;;;;;7.10;5.07;;;;;;;10.36;91.70;96547.63;5125406;28;20470;-72
2023/10/28 00:07:54;;;;;;;6.82;4.95;;;;;;;10.43;91.94;96566.94;5102084;28;20467;-71
2023/10/28 00:10:21;;;;;;;7.97;4.88;;;;;;;10.45;91.82;96567.47;5132065;28;20039;-71
2023/10/28 00:12:49;;;;;;;7.80;5.47;;;;;;;10.36;91.82;96547.63;5096443;28;20109;-70
2023/10/28 00:15:18;;;;;;;8.45;4.78;;;;;;;10.47;92.09;96565.28;5109404;28;20048;-70
2023/10/28 00:17:47;;;;;;;5.20;4.70;;;;;;;10.48;92.14;96571.47;5109690;28;20039;-70
2023/10/28 00:20:17;;;;;;;9.70;5.93;;;;;;;10.53;91.78;96580.28;5131890;28;20023;-69
2023/10/28 00:22:46;;;;;;;11.90;5.40;;;;;;;10.49;91.96;96567.69;5116180;28;20039;-70
2023/10/28 00:25:13;;;;;;;9.00;4.80;;;;;;;10.49;92.19;96581.13;5106925;28;20134;-70
2023/10/28 00:27:42;;;;;;;7.00;4.97;;;;;;;10.47;92.03;96580.63;5093226;28;20042;-72
2023/10/28 00:30:11;;;;;;;10.25;5.25;;;;;;;10.53;92.07;96580.28;5109468;28;20024;-71
2023/10/28 00:32:40;;;;;;;5.50;4.65;;;;;;;10.59;91.94;96589.94;5079541;28;20102;-71
2023/10/28 00:35:07;;;;;;;6.10;4.90;;;;;;;10.52;92.14;96588.66;5110552;28;20037;-71
2023/10/28 00:37:33;;;;;;;6.35;5.72;;;;;;;10.48;92.13;96572.25;5109977;27;20084;-71
2023/10/28 00:39:59;;;;;;;11.93;6.43;;;;;;;10.52;92.01;96589.47;5070753;28;20048;-73
2023/10/28 00:42:25;;;;;;;9.18;6.70;;;;;;;10.50;92.17;96590.81;5089009;28;20059;-73
2023/10/28 00:44:50;;;;;;;8.13;5.80;;;;;;;10.44;92.31;96579.28;5109075;28;20380;-73
2023/10/28 00:47:17;;;;;;;9.65;6.10;;;;;;;10.36;91.95;96580.69;5084951;28;20133;-73
2023/10/28 00:49:43;;;;;;;7.40;5.65;;;;;;;10.52;92.28;96589.47;5086096;27;20501;-73
2023/10/28 00:52:08;;;;;;;6.80;4.60;;;;;;;10.46;92.46;96573.63;5103560;28;20039;-73
2023/10/28 00:54:34;;;;;;;6.70;4.80;;;;;;;10.48;92.30;96577.63;5109994;28;20038;-73
2023/10/28 00:57:00;;;;;;;6.28;4.30;;;;;;;10.40;92.21;96570.19;5096341;28;20633;-73
2023/10/28 00:59:27;;;;;;;6.97;5.00;;;;;;;10.43;92.60;96601.13;5096373;28;20455;-73
2023/10/28 01:01:53;;;;;;;6.85;4.70;;;;;;;10.42;92.87;96592.22;5100017;27;20035;-74
2023/10/28 01:04:19;;;;;;;8.13;4.55;;;;;;;10.50;92.63;96591.63;5128269;27;20502;-74
2023/10/28 01:06:45;;;;;;;8.65;4.88;;;;;;;10.48;92.75;96596.47;5092645;28;20056;-74
2023/10/28 01:09:10;;;;;;;8.55;5.30;;;;;;;10.35;92.96;96589.06;5075716;28;20085;-74
2023/10/28 01:11:42;;;;;;;7.03;5.13;;;;;;;10.45;92.98;96602.44;5088872;28;20483;-74
2023/10/28 01:14:07;;;;;;;13.65;5.70;;;;;;;10.49;92.61;96605.34;5095784;28;20547;-74
2023/10/28 01:16:33;;;;;;;9.60;5.00;;;;;;;10.50;93.29;96602.41;5095897;28;20027;-74
2023/10/28 01:18:59;;;;;;;8.40;5.20;;;;;;;10.49;93.30;96583.81;5058980;28;20038;-74
2023/10/28 01:21:25;;;;;;;11.00;5.97;;;;;;;10.46;93.46;96585.19;5079418;28;20055;-73
2023/10/28 01:23:51;;;;;;;10.02;5.60;;;;;;;10.56;92.98;96595.88;5095422;28;20074;-72
2023/10/28 01:26:16;;;;;;;8.30;5.90;;;;;;;10.51;93.45;96587.03;5075811;28;20047;-73
2023/10/28 01:28:42;;;;;;;8.63;5.50;;;;;;;10.52;93.40;96592.16;5095605;28;20086;-74
2023/10/28 01:31:08;;;;;;;7.28;5.30;;;;;;;10.64;93.23;96605.25;5095422;28;20031;-73
2023/10/28 01:33:34;;;;;;;10.70;6.00;;;;;;;10.58;93.31;96599.09;5091862;28;20039;-72
2023/10/28 01:36:00;;;;;;;12.90;5.95;;;;;;;10.67;93.55;96597.38;5095403;28;20568;-72
2023/10/28 01:38:26;;;;;;;9.82;5.95;;;;;;;10.66;93.57;96590.41;5095512;28;20030;-72
2023/10/28 01:40:51;;;;;;;11.00;6.22;;;;;;;10.66;93.65;96597.69;5095291;28;20024;-73
2023/10/28 01:43:18;;;;;;;12.10;6.10;;;;;;;10.54;93.78;96584.59;5095113;28;20036;-73
2023/10/28 01:45:44;;;;;;;11.18;6.65;;;;;;;10.54;93.86;96579.22;5095581;28;20025;-75
2023/10/28 01:48:09;;;;;;;9.25;6.00;;;;;;;10.56;94.04;96585.09;5095158;28;20126;-75
2023/10/28 01:50:35;;;;;;;13.43;6.65;;;;;;;10.56;93.71;96579.72;5095226;28;20050;-74
2023/10/28 01:53:00;;;;;;;10.23;5.95;;;;;;;10.63;93.93;96593.66;5074519;28;20550;-75
2023/10/28 01:55:25;;;;;;;10.25;5.88;;;;;;;10.60;93.93;96591.53;5071920;28;20024;-74
2023/10/28 01:57:51;;;;;;;13.05;7.00;;;;;;;10.54;94.39;96581.09;5095185;28;20036;-74
2023/10/28 02:00:16;;;;;;;9.55;6.40;;;;;;;10.53;94.37;96580.28;5095085;28;20053;-75
2023/10/28 02:02:45;;;;;;;9.60;6.50;;;;;;;10.68;94.46;96596.31;5079187;28;20108;-73
2023/10/28 02:05:12;;;;;;;10.27;6.72;;;;;;;10.54;94.21;96581.09;5094835;28;20043;-72
2023/10/28 02:07:38;;;;;;;7.28;6.10;;;;;;;10.57;94.67;96584.00;5094771;28;20035;-74
2023/10/28 02:10:05;;;;;;;9.32;6.07;;;;;;;10.63;93.99;96585.59;5094779;28;20081;-73
2023/10/28 02:12:34;;;;;;;8.73;5.95;;;;;;;10.57;94.21;96570.53;5074204;28;20036;-75
2023/10/28 02:15:01;;;;;;;11.20;7.10;;;;;;;10.71;94.41;96586.88;5080178;28;20028;-74
2023/10/28 02:17:27;;;;;;;10.63;7.25;;;;;;;10.51;93.99;96563.63;5113106;28;20035;-75
2023/10/28 02:19:56;;;;;;;12.88;6.93;;;;;;;10.58;94.10;96580.25;5074942;28;20016;-74
2023/10/28 02:22:22;;;;;;;8.32;6.22;;;;;;;10.68;94.54;96601.69;5080521;27;20031;-73
2023/10/28 02:24:48;;;;;;;9.30;6.15;;;;;;;10.60;94.29;96586.16;5115584;27;20051;-73
2023/10/28 02:27:14;;;;;;;11.35;6.45;;;;;;;10.56;94.81;96584.31;5103303;27;20089;-74
2023/10/28 02:29:40;;;;;;;10.35;6.25;;;;;;;10.64;94.57;96587.16;5099136;27;20031;-73
2023/10/28 02:32:07;;;;;;;7.82;6.35;;;;;;;10.62;94.71;96594.72;5116430;27;20091;-74
2023/10/28 02:34:32;;;;;;;8.70;6.22;;;;;;;10.65;94.51;96604.94;5098930;27;20101;-73
2023/10/28 02:36:58;;;;;;;14.23;7.00;;;;;;;10.64;94.57;96606.00;5114803;27;20066;-73
2023/10/28 02:39:24;;;;;;;10.73;5.90;;;;;;;10.55;94.85;96591.56;5132838;27;20402;-71
2023/10/28 02:41:49;;;;;;;7.97;6.03;;;;;;;10.59;95.02;96605.28;5114814;27;20043;-71
2023/10/28 02:44:14;;;;;;;7.57;5.57;;;;;;;10.56;95.08;96606.66;5132652;27;20023;-70
2023/10/28 02:46:40;;;;;;;8.40;6.00;;;;;;;10.60;95.34;96613.06;5132864;27;20039;-71
2023/10/28 02:49:05;;;;;;;7.85;5.35;;;;;;;10.55;94.95;96599.63;5132738;27;20030;-73
2023/10/28 02:51:30;;;;;;;9.75;5.93;;;;;;;10.53;94.90;96612.59;5097069;27;20027;-72
2023/10/28 02:53:58;;;;;;;8.18;5.38;;;;;;;10.60;95.01;96613.06;5127239;27;20379;-72
2023/10/28 02:56:24;;;;;;;9.70;5.35;;;;;;;10.59;95.19;96610.66;5114554;27;20049;-72
2023/10/28 02:58:50;;;;;;;9.23;5.35;;;;;;;10.55;95.04;96613.09;5097322;27;20023;-72
2023/10/28 03:01:15;;;;;;;6.93;4.90;;;;;;;10.47;95.32;96607.53;5114265;27;20027;-72
2023/10/28 03:03:42;;;;;;;5.97;5.00;;;;;;;10.58;95.10;96609.84;5113874;27;20038;-71
2023/10/28 03:06:09;;;;;;;5.82;5.05;;;;;;;10.66;95.12;96611.94;5114609;27;20104;-73
2023/10/28 03:08:34;;;;;;;5.68;4.80;;;;;;;10.64;95.11;96614.09;5097061;27;20061;-72
2023/10/28 03:11:00;;;;;;;7.20;4.45;;;;;;;10.59;95.26;96621.44;5114230;27;20044;-72
2023/10/28 03:13:25;;;;;;;5.00;4.38;;;;;;;10.61;95.31;96614.69;5111338;28;20532;-72
2023/10/28 03:15:50;;;;;;;5.35;4.18;;;;;;;10.64;95.23;96618.69;5099369;28;20522;-72
2023/10/28 03:18:16;;;;;;;5.88;4.05;;;;;;;10.57;95.31;96608.22;5091441;28;20056;-74
2023/10/28 03:20:41;;;;;;;7.32;4.22;;;;;;;10.59;95.12;96613.34;5097082;28;20636;-72
2023/10/28 03:23:07;;;;;;;5.72;4.00;;;;;;;10.52;95.16;96600.22;5094926;28;20020;-72
2023/10/28 03:25:32;;;;;;;4.45;3.65;;;;;;;10.60;95.32;96612.25;5073388;28;20492;-71
2023/10/28 03:28:00;;;;;;;5.78;4.00;;;;;;;10.62;95.25;96621.66;5106955;28;20106;-72
2023/10/28 03:30:27;;;;;;;5.18;3.63;;;;;;;10.63;95.48;96617.88;5084451;28;20032;-71
2023/10/28 03:32:52;;;;;;;4.88;3.53;;;;;;;10.49;95.43;96595.41;5073879;28;20020;-71
2023/10/28 03:35:17;;;;;;;3.53;3.22;;;;;;;10.62;95.68;96610.88;5073539;28;20043;-72
2023/10/28 03:37:44;;;;;;;3.55;3.15;;;;;;;10.61;95.31;96619.25;5070566;28;20122;-72
2023/10/28 03:40:10;;;;;;;4.80;3.08;;;;;;;10.55;95.40;96618.47;5090694;28;20442;-71
2023/10/28 03:42:36;;;;;;;6.65;3.65;;;;;;;10.63;95.05;96622.47;5067227;28;20024;-72
2023/10/28 03:45:05;;;;;;;4.00;2.92;;;;;;;10.57;95.72;96610.94;5076957;28;20043;-73
2023/10/28 03:47:31;;;;;;;3.30;3.00;;;;;;;10.50;95.72;96607.78;5093570;28;20092;-72
2023/10/28 03:49:56;;;;;;;3.30;2.97;;;;;;;10.54;95.45;96614.19;5119082;28;20114;-74
2023/10/28 03:52:22;;;;;;;3.10;2.70;;;;;;;10.60;95.66;96618.44;5131831;28;20026;-73
2023/10/28 03:54:47;;;;;;;3.10;2.60;;;;;;;10.54;95.55;96618.78;5079446;28;20043;-71
2023/10/28 03:57:13;;;;;;;3.70;2.88;;;;;;;10.44;95.43;96616.97;5105358;28;20023;-73
2023/10/28 03:59:38;;;;;;;3.88;2.40;;;;;;;10.50;95.20;96626.63;5093637;28;20376;-74
2023/10/28 04:02:04;;;;;;;3.00;2.33;;;;;;;10.55;95.41;96631.94;5110202;28;20039;-73
2023/10/28 04:04:30;;;;;;;5.45;2.67;;;;;;;10.46;95.72;96622.88;5113966;28;20036;-73
2023/10/28 04:06:55;;;;;;;3.70;2.47;;;;;;;10.56;95.08;96644.31;5097584;28;20023;-70
2023/10/28 04:09:21;;;;;;;3.00;2.10;;;;;;;10.58;95.04;96647.53;5097197;28;20043;-72
2023/10/28 04:11:46;;;;;;;3.13;2.15;;;;;;;10.53;95.73;96639.50;5114331;28;20392;-71
2023/10/28 04:14:13;;;;;;;4.35;2.50;;;;;;;10.58;95.75;96639.47;5093460;28;20032;-71
2023/10/28 04:16:39;;;;;;;2.38;1.90;;;;;;;10.56;95.07;96643.53;5100319;28;20039;-69
2023/10/28 04:19:04;;;;;;;3.15;1.80;;;;;;;10.60;95.25;96655.31;5098833;28;20051;-70
2023/10/28 04:21:30;;;;;;;3.00;1.90;;;;;;;10.52;95.21;96643.28;5080032;28;20023;-71
2023/10/28 04:23:55;;;;;;;2.72;1.83;;;;;;;10.64;95.09;96662.56;5093378;28;20039;-73
2023/10/28 04:26:20;;;;;;;1.90;1.70;;;;;;;10.53;94.73;96647.56;5109538;28;20106;-73
2023/10/28 04:28:46;;;;;;;1.95;1.73;;;;;;;10.58;95.36;96661.00;5076780;28;20040;-74
2023/10/28 04:31:11;;;;;;;2.10;1.80;;;;;;;10.47;94.79;96651.41;5091098;28;20020;-70
2023/10/28 04:33:37;;;;;;;2.78;1.80;;;;;;;10.60;94.74;96666.91;5104417;27;20658;-73
2023/10/28 04:36:02;;;;;;;3.58;1.80;;;;;;;10.57;94.52;96667.44;5117284;27;20042;-73
2023/10/28 04:38:29;;;;;;;3.55;1.90;;;;;;;10.63;94.76;96671.72;5117409;27;20164;-72
2023/10/28 04:40:56;;;;;;;2.25;1.70;;;;;;;10.43;94.49;96638.78;5118002;27;20030;-73
2023/10/28 04:43:21;;;;;;;3.53;2.10;;;;;;;10.58;94.31;96661.00;5101226;27;20035;-71
2023/10/28 04:45:48;;;;;;;2.25;1.80;;;;;;;10.60;94.46;96663.41;5118172;27;20027;-74
2023/10/28 04:48:13;;;;;;;2.78;1.70;;;;;;;10.67;94.26;96674.66;5100308;27;20516;-73
2023/10/28 04:50:41;;;;;;;4.78;1.80;;;;;;;10.56;94.33;96660.47;5099982;27;20047;-72
2023/10/28 04:53:06;;;;;;;4.90;1.77;;;;;;;10.65;93.72;96682.22;5116565;27;20108;-73
2023/10/28 04:55:32;;;;;;;2.20;1.65;;;;;;;10.51;93.94;96663.22;5109455;28;20077;-72
2023/10/28 04:57:57;;;;;;;2.10;1.83;;;;;;;10.65;94.22;96685.72;5096167;28;20035;-72
2023/10/28 05:00:22;;;;;;;3.60;1.85;;;;;;;10.65;94.23;96695.66;5077244;28;20020;-73
2023/10/28 05:02:48;;;;;;;1.88;1.70;;;;;;;10.61;94.01;96692.75;5075654;28;20039;-73
2023/10/28 05:05:14;;;;;;;4.18;1.80;;;;;;;10.59;93.78;96691.41;5090761;28;20034;-71
2023/10/28 05:07:39;;;;;;;2.88;1.85;;;;;;;10.51;93.58;96679.34;5096013;28;20031;-73
2023/10/28 05:10:05;;;;;;;2.33;1.70;;;;;;;10.54;93.42;96692.25;5096115;28;20030;-72
2023/10/28 05:12:32;;;;;;;2.53;1.60;;;;;;;10.64;93.25;96699.47;5075377;28;20036;-72
2023/10/28 05:14:58;;;;;;;4.10;2.10;;;;;;;10.68;93.07;96709.38;5090640;28;20031;-73
2023/10/28 05:17:25;;;;;;;1.92;1.70;;;;;;;10.64;93.60;96702.16;5096106;28;20613;-72
2023/10/28 05:19:51;;;;;;;5.35;2.22;;;;;;;10.65;93.29;96707.25;5095775;28;20680;-73
2023/10/28 05:22:18;;;;;;;3.10;2.00;;;;;;;10.60;93.44;96709.97;5116195;27;20043;-71
2023/10/28 05:24:44;;;;;;;4.75;1.80;;;;;;;10.59;93.27;96703.00;5134834;27;20027;-72
2023/10/28 05:27:10;;;;;;;2.03;1.83;;;;;;;10.58;93.14;96706.75;5134861;27;20513;-73
2023/10/28 05:29:36;;;;;;;2.80;1.77;;;;;;;10.47;93.26;96683.69;5116107;27;20125;-72
2023/10/28 05:32:02;;;;;;;2.08;1.70;;;;;;;10.66;92.91;96718.81;5099458;27;20076;-72
2023/10/28 05:34:27;;;;;;;3.08;1.70;;;;;;;10.61;92.87;96706.22;5132836;27;20494;-72
2023/10/28 05:36:53;;;;;;;2.45;1.70;;;;;;;10.54;92.24;96700.34;5075254;28;20393;-71
2023/10/28 05:39:20;;;;;;;2.40;1.90;;;;;;;10.51;92.29;96700.88;5107290;28;20031;-72
2023/10/28 05:41:49;;;;;;;2.38;1.92;;;;;;;10.59;92.85;96724.53;5095874;28;20039;-72
2023/10/28 05:44:14;;;;;;;3.92;1.85;;;;;;;10.63;92.57;96730.16;5095113;28;20023;-73
2023/10/28 05:46:40;;;;;;;2.40;1.80;;;;;;;10.62;93.08;96723.16;5113595;28;20043;-72
2023/10/28 05:49:06;;;;;;;3.10;1.98;;;;;;;10.60;92.87;96719.94;5095058;28;20092;-72
2023/10/28 05:51:35;;;;;;;3.03;1.92;;;;;;;10.49;92.52;96723.78;5095523;28;20046;-72
2023/10/28 05:54:04;;;;;;;3.03;2.20;;;;;;;10.63;92.51;96735.53;5095450;28;20032;-72
2023/10/28 05:56:30;;;;;;;2.47;2.25;;;;;;;10.66;92.53;96730.41;5113449;28;20039;-72
2023/10/28 05:58:58;;;;;;;3.70;2.03;;;;;;;10.53;92.70;96714.88;5076523;28;20028;-72
2023/10/28 06:01:24;;;;;;;4.40;1.88;;;;;;;10.62;92.08;96729.34;5113285;28;20446;-71
2023/10/28 06:03:49;;;;;;;2.97;2.03;;;;;;;10.52;92.48;96729.44;5094556;28;20026;-71
2023/10/28 06:06:15;;;;;;;5.60;2.33;;;;;;;10.57;92.17;96733.97;5094998;28;20036;-73
2023/10/28 06:08:41;;;;;;;4.95;3.00;;;;;;;10.48;92.03;96728.34;5112824;28;20055;-73
2023/10/28 06:11:09;;;;;;;3.75;2.55;;;;;;;10.55;92.27;96745.00;5094814;28;20061;-71
2023/10/28 06:13:35;;;;;;;6.32;2.80;;;;;;;10.51;92.51;96743.94;5112555;28;20099;-71
2023/10/28 06:16:00;;;;;;;5.93;3.03;;;;;;;10.48;92.30;96743.72;5077950;28;20122;-71
2023/10/28 06:18:26;;;;;;;6.70;2.65;;;;;;;10.50;92.41;96761.22;5112998;28;20546;-72
2023/10/28 06:20:52;;;;;;;3.38;2.60;;;;;;;10.48;91.86;96755.28;5086107;28;20025;-71
2023/10/28 06:23:18;;;;;;;5.20;2.70;;;;;;;10.56;92.17;96778.91;5081671;28;20521;-71
2023/10/28 06:25:43;;;;;;;9.18;5.63;;;;;;;10.54;92.24;96778.41;5094777;28;20406;-71
2023/10/28 06:28:10;;;;;;;42.42;27.70;;;;;;;10.57;91.99;96780.50;5076918;28;20077;-71
2023/10/28 06:30:36;;;;;;;98.55;56.83;;;;;;;10.58;92.35;96782.13;5118034;27;20118;-71
2023/10/28 06:33:02;;;;;;;78.75;49.85;;;;;;;10.58;92.29;96790.22;5108476;28;20111;-71
2023/10/28 06:35:28;;;;;;;118.70;75.00;;;;;;;10.59;92.28;96783.75;5094678;28;20031;-71
2023/10/28 06:37:53;;;;;;;135.55;84.85;;;;;;;10.59;92.23;96789.13;5094197;28;20051;-73
2023/10/28 06:40:19;;;;;;;26.67;14.38;;;;;;;10.49;92.33;96780.31;5074008;28;20063;-72
2023/10/28 06:42:44;;;;;;;43.05;28.00;;;;;;;10.50;92.46;96780.03;5106234;28;20031;-73
2023/10/28 06:45:10;;;;;;;20.20;13.05;;;;;;;10.55;91.83;96780.00;5098304;27;20031;-72
2023/10/28 06:47:35;;;;;;;12.90;6.88;;;;;;;10.57;92.50;96795.88;5098755;28;20045;-72
2023/10/28 06:50:06;;;;;;;11.32;7.15;;;;;;;10.64;92.37;96807.94;5112297;28;20509;-71
2023/10/28 06:52:32;;;;;;;7.85;5.32;;;;;;;10.68;92.20;96809.00;5094349;28;20114;-71
2023/10/28 06:55:02;;;;;;;7.97;4.75;;;;;;;10.58;92.07;96787.50;5092470;28;20034;-72
2023/10/28 06:57:28;;;;;;;6.63;4.88;;;;;;;10.74;91.94;96805.19;5094631;28;20036;-72
2023/10/28 06:59:53;;;;;;;7.50;3.70;;;;;;;10.68;91.97;96798.22;5073355;28;20065;-71
2023/10/28 07:02:19;;;;;;;10.23;3.92;;;;;;;10.68;92.00;96792.03;5090480;28;20046;-72
2023/10/28 07:04:44;;;;;;;6.43;3.72;;;;;;;10.68;91.83;96798.22;5093993;28;20110;-73
2023/10/28 07:07:14;;;;;;;9.50;3.90;;;;;;;10.73;92.00;96808.16;5086893;28;20036;-72
2023/10/28 07:09:39;;;;;;;15.05;7.90;;;;;;;10.62;92.03;96804.72;5071857;28;20045;-72
2023/10/28 07:12:05;;;;;;;12.15;7.43;;;;;;;10.66;92.02;96799.59;5110524;27;20050;-72
2023/10/28 07:14:31;;;;;;;19.30;9.98;;;;;;;10.76;92.30;96827.25;5061383;28;20018;-71
2023/10/28 07:16:56;;;;;;;12.77;7.88;;;;;;;10.81;91.91;96832.59;5080554;28;20037;-73
2023/10/28 07:19:22;;;;;;;11.07;5.85;;;;;;;10.84;92.01;96832.06;5092490;28;20028;-72
2023/10/28 07:21:47;;;;;;;12.00;5.55;;;;;;;10.80;92.24;96838.28;5106693;27;20057;-72
2023/10/28 07:24:12;;;;;;;16.00;7.18;;;;;;;10.83;92.49;96843.91;5132229;27;20023;-73
2023/10/28 07:26:38;;;;;;;13.13;7.72;;;;;;;10.85;91.96;96841.72;5131737;28;20035;-72
2023/10/28 07:29:06;;;;;;;10.43;6.32;;;;;;;10.78;92.55;96854.69;5131676;28;20359;-72
2023/10/28 07:31:31;;;;;;;14.30;7.60;;;;;;;10.83;92.30;96849.28;5114250;28;20054;-72
2023/10/28 07:33:57;;;;;;;19.27;8.88;;;;;;;10.88;92.24;96857.34;5113540;28;20027;-72
2023/10/28 07:36:22;;;;;;;17.52;9.05;;;;;;;10.78;91.93;96846.63;5132185;28;20043;-72
2023/10/28 07:38:48;;;;;;;8.70;5.20;;;;;;;10.85;91.86;96847.13;5116222;27;20023;-72
2023/10/28 07:41:14;;;;;;;12.77;5.82;;;;;;;10.85;92.35;96857.88;5117955;27;20347;-72
2023/10/28 07:43:39;;;;;;;11.02;8.30;;;;;;;10.77;91.82;96834.25;5117792;27;20401;-73
2023/10/28 07:46:04;;;;;;;9.60;6.05;;;;;;;10.99;91.82;96856.19;5118065;27;20034;-72
2023/10/28 07:48:30;;;;;;;10.30;7.38;;;;;;;11.06;91.31;96853.97;5136349;27;20120;-72
2023/10/28 07:50:55;;;;;;;7.80;3.85;;;;;;;11.18;90.98;96853.63;5117809;27;20027;-73
2023/10/28 07:53:21;;;;;;;15.13;7.47;;;;;;;11.23;91.32;96855.47;5135920;27;20466;-73
2023/10/28 07:55:47;;;;;;;9.40;5.20;;;;;;;11.37;91.13;96864.53;5117903;27;20188;-73
2023/10/28 07:58:12;;;;;;;12.43;5.32;;;;;;;11.35;90.95;96858.63;5077092;28;20028;-72
2023/10/28 08:00:40;;;;;;;10.82;5.85;;;;;;;11.37;91.14;96851.88;5111904;28;20100;-71
2023/10/28 08:03:06;;;;;;;10.00;5.35;;;;;;;11.41;90.39;96860.22;5115319;28;20027;-72
2023/10/28 08:05:31;;;;;;;7.40;5.32;;;;;;;11.53;90.52;96872.22;5115561;28;20061;-72
2023/10/28 08:07:57;;;;;;;9.73;5.68;;;;;;;11.63;89.62;96890.19;5115524;28;20028;-73
2023/10/28 08:10:22;;;;;;;7.43;4.00;;;;;;;11.69;89.57;96889.13;5097499;28;20048;-71
2023/10/28 08:12:54;;;;;;;6.30;3.30;;;;;;;11.74;89.15;96897.13;5105209;28;20032;-72
2023/10/28 08:15:20;;;;;;;9.38;3.35;;;;;;;11.64;89.19;96887.25;5080204;28;20107;-72
2023/10/28 08:17:46;;;;;;;5.38;3.13;;;;;;;11.62;89.62;96896.69;5113962;28;20701;-71
2023/10/28 08:20:14;;;;;;;5.72;3.03;;;;;;;11.58;89.41;96909.13;5092376;28;20039;-73
2023/10/28 08:22:43;;;;;;;7.70;4.60;;;;;;;11.59;89.00;96886.47;5096680;28;20022;-72
2023/10/28 08:25:10;;;;;;;6.90;3.90;;;;;;;11.71;88.92;96903.13;5096886;28;20035;-73
2023/10/28 08:27:36;;;;;;;5.75;3.33;;;;;;;11.72;89.16;96904.72;5093722;28;20560;-72
2023/10/28 08:30:02;;;;;;;8.70;3.90;;;;;;;11.75;88.45;96904.16;5094759;28;20110;-72
2023/10/28 08:32:30;;;;;;;6.78;2.75;;;;;;;11.56;88.49;96895.13;5114593;28;20493;-73
2023/10/28 08:34:56;;;;;;;5.07;2.60;;;;;;;11.71;88.25;96922.81;5097120;28;20055;-72
2023/10/28 08:37:23;;;;;;;6.47;2.60;;;;;;;11.70;88.65;96912.28;5092950;28;20386;-73
2023/10/28 08:39:48;;;;;;;6.38;2.50;;;;;;;11.62;88.16;96907.47;5098690;27;20024;-72
2023/10/28 08:42:14;;;;;;;7.75;3.03;;;;;;;11.71;88.01;96916.59;5135218;27;20030;-72
2023/10/28 08:44:40;;;;;;;8.63;3.25;;;;;;;11.77;88.05;96912.75;5100131;27;20090;-72
2023/10/28 08:47:06;;;;;;;6.68;3.30;;;;;;;11.76;88.25;96925.44;5116856;27;20030;-72
2023/10/28 08:49:39;;;;;;;5.68;3.05;;;;;;;11.79;88.10;96932.16;5116021;27;20039;-72
2023/10/28 08:52:07;;;;;;;6.47;3.10;;;;;;;11.70;87.46;96907.69;5116847;27;20049;-73
2023/10/28 08:54:34;;;;;;;8.95;3.42;;;;;;;11.76;88.16;96919.25;5081061;27;20479;-73
2023/10/28 08:57:00;;;;;;;9.93;3.50;;;;;;;11.91;88.12;96935.31;5116786;27;20034;-72
2023/10/28 08:59:26;;;;;;;9.55;6.07;;;;;;;11.95;87.97;96933.63;5116741;27;20106;-72
2023/10/28 09:01:52;;;;;;;7.70;3.55;;;;;;;12.01;87.87;96927.13;5116795;27;20050;-72
2023/10/28 09:04:21;;;;;;;7.13;3.33;;;;;;;12.04;87.42;96929.22;5096135;28;20011;-71
2023/10/28 09:06:47;;;;;;;6.38;3.00;;;;;;;12.08;87.53;96934.88;5079597;28;20031;-72
2023/10/28 09:09:13;;;;;;;4.70;2.78;;;;;;;12.18;87.49;96932.88;5114418;28;20028;-73
2023/10/28 09:11:39;;;;;;;5.53;3.08;;;;;;;12.18;87.53;96938.28;5114576;28;20118;-72
2023/10/28 09:14:07;;;;;;;6.70;3.10;;;;;;;12.23;86.96;96915.81;5095901;28;20102;-72
2023/10/28 09:16:34;;;;;;;5.35;2.85;;;;;;;12.48;86.89;96943.34;5096195;28;20067;-72
2023/10/28 09:19:00;;;;;;;7.13;3.15;;;;;;;12.62;86.69;96935.38;5096099;28;20096;-71
2023/10/28 09:21:26;;;;;;;6.93;3.00;;;;;;;12.82;85.85;96948.63;5094331;28;20026;-72
2023/10/28 09:23:51;;;;;;;8.98;2.65;;;;;;;12.72;85.80;96932.53;5075158;28;20020;-72
2023/10/28 09:26:18;;;;;;;4.90;3.35;;;;;;;12.74;84.83;96945.78;5115916;27;20042;-72
2023/10/28 09:28:47;;;;;;;6.03;2.53;;;;;;;12.69;84.95;96945.84;5103098;28;20035;-72
2023/10/28 09:31:21;;;;;;;6.35;2.35;;;;;;;12.69;84.95;96941.25;5086389;28;20116;-71
2023/10/28 09:33:47;;;;;;;5.82;2.90;;;;;;;12.67;84.51;96948.03;5093083;28;20047;-72
2023/10/28 09:36:12;;;;;;;5.65;2.65;;;;;;;12.66;84.27;96951.81;5093123;28;20020;-72
2023/10/28 09:38:38;;;;;;;9.30;6.55;;;;;;;12.57;84.78;96953.53;5108420;27;20035;-72
2023/10/28 09:41:05;;;;;;;14.25;6.75;;;;;;;12.55;84.74;96951.13;5101131;28;20024;-72
2023/10/28 09:43:32;;;;;;;32.42;13.75;;;;;;;12.52;84.62;96940.09;5093228;28;20051;-72
2023/10/28 09:45:58;;;;;;;33.08;17.92;;;;;;;12.64;84.09;96954.00;5097974;27;20036;-72
2023/10/28 09:48:26;;;;;;;27.33;14.40;;;;;;;12.74;84.23;96948.47;5103751;27;20124;-72
2023/10/28 09:50:52;;;;;;;23.33;12.55;;;;;;;12.72;84.61;96961.47;5115897;27;20023;-72
2023/10/28 09:53:30;;;;;;;45.90;25.83;;;;;;;12.71;84.18;96949.06;5115383;27;20529;-72
2023/10/28 09:55:56;;;;;;;16.48;10.10;;;;;;;12.80;84.57;96947.31;5122810;27;20096;-72
2023/10/28 09:58:24;;;;;;;9.50;5.88;;;;;;;12.93;84.47;96952.00;5133751;27;20428;-72
2023/10/28 10:00:51;;;;;;;20.50;11.65;;;;;;;12.99;84.16;96940.06;5115043;28;20045;-72
2023/10/28 10:03:57;;;;;;;18.17;11.50;;;;;;;13.13;83.55;96952.59;5114347;27;20106;-72
2023/10/28 10:06:23;;;;;;;23.73;13.82;;;;;;;13.14;84.09;96934.47;5080759;27;20054;-73
2023/10/28 10:08:50;;;;;;;15.95;8.70;;;;;;;13.28;84.00;96943.47;5115176;27;20072;-71
2023/10/28 10:11:23;;;;;;;19.88;13.45;;;;;;;13.40;83.38;96961.94;5133431;27;20383;-70
2023/10/28 10:13:50;;;;;;;14.55;7.03;;;;;;;13.42;83.63;96949.75;5106312;28;20039;-71
2023/10/28 10:16:36;;;;;;;7.15;4.18;;;;;;;13.42;83.11;96938.94;5069163;28;20073;-72
2023/10/28 10:19:05;;;;;;;11.30;7.43;;;;;;;13.58;83.81;96932.19;5088754;28;20426;-71
2023/10/28 10:21:33;;;;;;;9.55;5.45;;;;;;;13.58;83.26;96934.88;5077918;28;20390;-71
2023/10/28 10:24:02;;;;;;;11.10;6.38;;;;;;;13.59;83.13;96944.63;5094540;28;20063;-70
2023/10/28 10:26:31;;;;;;;5.07;2.60;;;;;;;13.34;82.36;96926.09;5112882;28;20034;-72
2023/10/28 10:29:02;;;;;;;6.55;2.72;;;;;;;13.40;82.58;96934.91;5094710;28;20042;-71
2023/10/28 10:31:32;;;;;;;6.55;2.00;;;;;;;13.34;82.22;96938.78;5098144;28;20044;-71
2023/10/28 10:34:07;;;;;;;7.18;3.20;;;;;;;13.32;81.91;96939.09;5093436;27;20041;-71
2023/10/28 10:36:36;;;;;;;6.45;2.42;;;;;;;13.21;81.70;96926.00;5133246;27;20073;-71
2023/10/28 10:39:10;;;;;;;5.57;2.40;;;;;;;13.41;81.29;96934.63;5127819;27;20111;-71
2023/10/28 10:41:36;;;;;;;6.53;2.17;;;;;;;13.48;81.60;96937.78;5133031;27;20031;-71
2023/10/28 10:44:21;;;;;;;6.50;1.77;;;;;;;13.44;80.26;96934.03;5114419;27;20026;-71
2023/10/28 10:46:48;;;;;;;5.57;2.30;;;;;;;13.50;80.55;96924.75;5132900;27;20027;-71
2023/10/28 10:49:14;;;;;;;5.90;1.95;;;;;;;13.49;80.36;96927.75;5114515;27;20027;-71
2023/10/28 10:51:40;;;;;;;5.45;3.58;;;;;;;13.45;80.25;96924.00;5114494;27;20517;-70
2023/10/28 10:54:05;;;;;;;3.42;1.73;;;;;;;13.28;79.38;96919.13;5132503;27;20043;-71
2023/10/28 10:56:31;;;;;;;9.52;4.35;;;;;;;13.42;80.30;96930.81;5113684;27;20038;-70
2023/10/28 10:58:57;;;;;;;8.02;3.95;;;;;;;13.45;80.96;96927.53;5127320;27;20031;-70
2023/10/28 11:01:22;;;;;;;6.70;3.30;;;;;;;13.53;80.83;96935.00;5114417;27;20023;-71
2023/10/28 11:03:48;;;;;;;7.32;4.82;;;;;;;13.60;80.71;96932.72;5114324;27;20031;-70
2023/10/28 11:06:13;;;;;;;4.63;2.83;;;;;;;13.76;80.69;96934.09;5124190;27;20483;-70
2023/10/28 11:08:40;;;;;;;6.70;2.42;;;;;;;13.90;79.57;96927.91;5109170;27;20046;-70
2023/10/28 11:11:05;;;;;;;6.57;3.08;;;;;;;14.12;79.18;96925.38;5132628;27;20035;-70
2023/10/28 11:13:30;;;;;;;4.50;2.67;;;;;;;14.18;78.57;96907.91;5096473;27;20398;-70
2023/10/28 11:15:56;;;;;;;6.45;2.33;;;;;;;14.57;78.55;96924.53;5114413;27;20027;-71
2023/10/28 11:18:22;;;;;;;5.88;2.50;;;;;;;14.87;77.60;96923.91;5091970;28;20383;-71
2023/10/28 11:20:49;;;;;;;6.78;2.40;;;;;;;15.14;76.55;96921.19;5106280;28;20024;-71
2023/10/28 11:23:16;;;;;;;7.43;4.03;;;;;;;15.12;75.64;96923.38;5113925;27;20027;-71
2023/10/28 11:25:42;;;;;;;4.60;2.17;;;;;;;15.07;76.00;96922.69;5123880;27;20475;-71
2023/10/28 11:28:09;;;;;;;5.65;2.35;;;;;;;14.74;75.98;96913.91;5075666;28;20077;-74